createdAt,value
2019-04-05T00:03:38.510Z,14.73
2019-04-05T00:08:41.074Z,13.90
2019-04-05T00:13:47.020Z,14.30
2019-04-05T00:18:49.557Z,15.03
2019-04-05T00:23:52.170Z,13.60
2019-04-05T00:28:54.732Z,13.77
2019-04-05T00:33:57.214Z,14.37
2019-04-05T00:38:59.726Z,14.23
2019-04-05T00:44:02.321Z,14.80
2019-04-05T00:49:04.922Z,15.77
2019-04-05T00:54:07.602Z,16.50
2019-04-05T00:59:10.199Z,14.33
2019-04-05T01:04:12.687Z,14.37
2019-04-05T01:09:15.214Z,15.37
2019-04-05T01:14:18.206Z,15.47
2019-04-05T01:19:20.818Z,16.90
2019-04-05T01:24:23.510Z,16.93
2019-04-05T01:29:26.078Z,15.23
2019-04-05T01:34:28.610Z,16.40
2019-04-05T01:39:31.138Z,17.70
2019-04-05T01:44:33.962Z,17.87
2019-04-05T01:49:36.460Z,18.70
2019-04-05T01:54:39.002Z,18.17
2019-04-05T01:59:41.596Z,18.33
2019-04-05T02:04:44.148Z,18.33
2019-04-05T02:09:46.800Z,17.90
2019-04-05T02:14:49.321Z,18.93
2019-04-05T02:19:51.878Z,20.87
2019-04-05T02:24:54.461Z,19.27
2019-04-05T02:29:57.054Z,19.10
2019-04-05T02:34:59.582Z,19.27
2019-04-05T02:40:02.164Z,19.17
2019-04-05T02:45:05.579Z,20.17
2019-04-05T02:50:08.129Z,20.30
2019-04-05T02:55:10.786Z,21.10
2019-04-05T03:00:13.335Z,21.13
2019-04-05T03:05:15.970Z,22.50
2019-04-05T03:10:44.569Z,20.57
2019-04-05T03:15:47.175Z,20.30
2019-04-05T03:20:49.820Z,19.10
2019-04-05T03:25:52.457Z,20.63
2019-04-05T03:30:55.126Z,21.93
2019-04-05T03:35:57.780Z,20.57
2019-04-05T03:41:00.432Z,22.90
2019-04-05T03:46:03.359Z,21.50
2019-04-05T03:51:06.013Z,22.03
2019-04-05T03:56:08.580Z,24.87
2019-04-05T04:01:11.220Z,24.93
2019-04-05T04:06:13.914Z,23.00
2019-04-05T04:11:16.500Z,24.37
2019-04-05T04:16:19.106Z,23.80
2019-04-05T04:21:26.900Z,23.17
2019-04-05T04:26:29.489Z,23.00
2019-04-05T04:31:32.222Z,23.00
2019-04-05T04:36:35.954Z,22.60
2019-04-05T04:41:38.620Z,25.73
2019-04-05T04:46:41.250Z,25.30
2019-04-05T04:51:43.870Z,25.93
2019-04-05T04:56:47.288Z,23.83
2019-04-05T05:01:49.940Z,23.83
2019-04-05T05:06:52.584Z,24.37
2019-04-05T05:11:55.090Z,24.93
2019-04-05T05:16:57.672Z,25.90
2019-04-05T05:22:00.512Z,24.63
2019-04-05T05:27:03.201Z,26.97
2019-04-05T05:32:05.806Z,24.93
2019-04-05T05:37:08.410Z,24.40
2019-04-05T05:42:11.883Z,26.47
2019-04-05T05:47:14.583Z,25.83
2019-04-05T05:52:17.219Z,26.33
2019-04-05T05:57:19.805Z,23.83
2019-04-05T06:02:22.341Z,23.33
2019-04-05T06:07:24.906Z,23.17
2019-04-05T06:12:27.507Z,24.67
2019-04-05T06:17:30.058Z,26.60
2019-04-05T06:22:32.727Z,24.40
2019-04-05T06:27:35.504Z,27.37
2019-04-05T06:32:37.977Z,30.67
2019-04-05T06:37:40.514Z,28.23
2019-04-05T06:42:43.225Z,29.93
2019-04-05T06:47:45.742Z,27.33
2019-04-05T06:52:48.278Z,29.47
2019-04-05T06:57:50.892Z,28.77
2019-04-05T07:02:53.572Z,28.13
2019-04-05T07:07:56.120Z,31.30
2019-04-05T07:12:58.763Z,27.90
2019-04-05T07:18:01.450Z,31.57
2019-04-05T07:23:04.202Z,27.13
2019-04-05T07:28:06.783Z,26.40
2019-04-05T07:33:09.323Z,24.47
2019-04-05T07:38:11.866Z,24.73
2019-04-05T07:43:14.506Z,23.00
2019-04-05T07:48:17.085Z,20.93
2019-04-05T07:53:19.671Z,23.40
2019-04-05T07:58:22.273Z,22.03
2019-04-05T08:03:25.242Z,22.10
2019-04-05T08:09:05.775Z,22.03
2019-04-05T08:14:08.426Z,21.70
2019-04-05T08:19:10.967Z,25.53
2019-04-05T08:24:13.464Z,20.93
2019-04-05T08:29:16.130Z,21.47
2019-04-05T08:34:18.847Z,20.37
2019-04-05T08:39:21.470Z,21.33
2019-04-05T08:44:24.076Z,24.63
2019-04-05T08:49:26.558Z,28.27
2019-04-05T08:54:33.235Z,25.67
2019-04-05T08:59:32.398Z,24.40
2019-04-05T09:04:34.961Z,28.50
2019-04-05T09:09:37.502Z,24.50
2019-04-05T09:14:40.086Z,23.30
2019-04-05T09:19:42.655Z,24.23
2019-04-05T09:24:45.218Z,24.70
2019-04-05T09:29:47.846Z,24.43
2019-04-05T09:34:50.414Z,23.87
2019-04-05T09:39:52.977Z,24.80
2019-04-05T09:44:55.588Z,25.37
2019-04-05T09:49:58.134Z,24.83
2019-04-05T09:55:00.626Z,27.00
2019-04-05T10:00:04.446Z,22.70
2019-04-05T10:05:07.115Z,22.37
2019-04-05T10:10:09.737Z,22.07
2019-04-05T10:15:12.403Z,23.50
2019-04-05T10:20:15.089Z,23.10
2019-04-05T10:25:17.661Z,23.67
2019-04-05T10:30:20.401Z,24.10
2019-04-05T10:35:23.025Z,24.50
2019-04-05T10:40:25.684Z,26.07
2019-04-05T10:45:28.305Z,23.57
2019-04-05T10:50:30.908Z,24.20
2019-04-05T10:55:33.468Z,24.17
2019-04-05T11:00:36.174Z,25.93
2019-04-05T11:05:38.738Z,23.37
2019-04-05T11:10:41.326Z,24.00
2019-04-05T11:15:43.895Z,26.17
2019-04-05T11:20:49.004Z,24.33
2019-04-05T11:25:49.121Z,21.37
2019-04-05T11:30:51.822Z,23.77
2019-04-05T11:35:57.539Z,22.10
2019-04-05T11:40:57.155Z,23.60
2019-04-05T11:45:59.823Z,24.20
2019-04-05T11:51:02.452Z,22.70
2019-04-05T11:56:14.369Z,23.07
2019-04-05T12:01:12.323Z,23.97
2019-04-05T12:06:14.884Z,22.23
2019-04-05T12:11:17.468Z,23.00
2019-04-05T12:16:20.070Z,20.67
2019-04-05T12:21:22.746Z,22.90
2019-04-05T12:26:25.582Z,21.70
2019-04-05T12:31:28.157Z,22.37
2019-04-05T12:36:30.718Z,19.57
2019-04-05T12:41:33.241Z,19.67
2019-04-05T12:46:35.946Z,22.43
2019-04-05T12:51:38.554Z,22.67
2019-04-05T12:56:41.349Z,23.80
2019-04-05T13:01:45.733Z,21.63
2019-04-05T13:06:47.137Z,21.50
2019-04-05T13:11:49.782Z,18.20
2019-04-05T13:16:52.413Z,22.33
2019-04-05T13:21:55.008Z,22.13
2019-04-05T13:26:57.742Z,19.67
2019-04-05T13:32:00.296Z,19.03
2019-04-05T13:37:02.926Z,22.57
2019-04-05T13:42:05.594Z,21.17
2019-04-05T13:47:08.381Z,22.03
2019-04-05T13:52:12.071Z,19.97
2019-04-05T13:57:15.380Z,22.47
2019-04-05T14:02:20.745Z,21.17
2019-04-05T14:07:21.577Z,23.53
2019-04-05T14:12:23.521Z,27.00
2019-04-05T14:17:26.359Z,24.30
2019-04-05T14:22:29.313Z,24.30
2019-04-05T14:27:34.910Z,22.50
2019-04-05T14:32:35.061Z,25.23
2019-04-05T14:37:38.435Z,23.93
2019-04-05T14:42:42.643Z,26.93
2019-04-05T14:47:44.119Z,21.43
2019-04-05T14:52:49.426Z,22.63
2019-04-05T14:57:49.761Z,21.47
2019-04-05T15:02:52.385Z,22.70
2019-04-05T15:07:55.176Z,19.87
2019-04-05T15:13:00.079Z,25.27
2019-04-05T15:18:00.207Z,21.80
2019-04-05T15:23:02.895Z,20.47
2019-04-05T15:28:05.503Z,20.27
2019-04-05T15:33:08.013Z,21.57
2019-04-05T15:38:10.580Z,24.57
2019-04-05T15:43:13.288Z,21.50
2019-04-05T15:48:15.923Z,20.37
2019-04-05T15:53:18.451Z,19.40
2019-04-05T15:58:21.112Z,20.63
2019-04-05T16:03:24.717Z,21.73
2019-04-05T16:08:27.599Z,20.10
2019-04-05T16:13:30.183Z,20.97
2019-04-05T16:18:32.883Z,21.13
2019-04-05T16:23:35.469Z,23.20
2019-04-05T16:28:40.881Z,20.17
2019-04-05T16:33:41.188Z,21.80
2019-04-05T16:38:43.756Z,20.43
2019-04-05T16:43:46.445Z,22.27
2019-04-05T16:48:49.032Z,20.17
2019-04-05T16:53:57.165Z,20.33
2019-04-05T16:59:00.773Z,21.47
2019-04-05T17:04:03.415Z,22.03
2019-04-05T17:09:07.588Z,21.50
2019-04-05T17:14:10.163Z,21.87
2019-04-05T17:19:12.713Z,22.57
2019-04-05T17:24:15.309Z,21.50
2019-04-05T17:29:17.880Z,21.60
2019-04-05T17:34:20.480Z,22.80
2019-04-05T17:39:23.464Z,24.90
2019-04-05T17:44:26.128Z,23.63
2019-04-05T17:49:28.666Z,21.83
2019-04-05T17:54:31.235Z,20.57
2019-04-05T17:59:33.922Z,20.83
2019-04-05T18:04:36.456Z,26.67
2019-04-05T18:09:39.031Z,23.30
2019-04-05T18:14:41.744Z,25.57
2019-04-05T18:19:44.363Z,23.53
2019-04-05T18:24:46.944Z,25.60
2019-04-05T18:29:49.575Z,21.00
2019-04-05T18:34:52.123Z,22.57
2019-04-05T18:39:54.706Z,23.43
2019-04-05T18:44:57.593Z,27.80
2019-04-05T18:50:03.150Z,22.03
2019-04-05T18:55:02.971Z,25.23
2019-04-05T19:00:05.787Z,23.93
2019-04-05T19:05:08.595Z,26.50
2019-04-05T19:10:11.203Z,22.40
2019-04-05T19:15:13.818Z,30.83
2019-04-05T19:20:16.406Z,24.83
2019-04-05T19:25:18.987Z,26.70
2019-04-05T19:50:32.030Z,23.13
2019-04-05T19:55:34.751Z,21.80
2019-04-05T20:00:37.371Z,22.97
2019-04-05T20:05:39.954Z,23.33
2019-04-05T20:10:42.514Z,21.93
2019-04-05T20:15:45.115Z,22.67
2019-04-05T20:20:47.670Z,22.60
2019-04-05T20:25:50.363Z,22.67
2019-04-05T20:30:53.023Z,24.53
2019-04-05T20:35:55.594Z,22.43
2019-04-05T20:40:58.197Z,24.80
2019-04-05T20:46:00.772Z,24.33
2019-04-05T20:51:03.467Z,25.03
2019-04-05T20:56:06.148Z,24.57
2019-04-05T21:01:08.701Z,23.77
2019-04-05T21:06:11.247Z,24.80
2019-04-05T21:11:13.799Z,25.80
2019-04-05T21:16:16.356Z,24.50
2019-04-05T21:21:18.978Z,25.27
2019-04-05T21:26:21.636Z,22.93
2019-04-05T21:31:24.170Z,25.03
2019-04-05T21:36:26.773Z,23.63
2019-04-05T21:41:29.325Z,24.30
2019-04-05T21:46:31.901Z,24.13
2019-04-05T21:51:34.489Z,23.00
2019-04-05T21:56:37.075Z,21.20
2019-04-05T22:01:39.801Z,22.57
2019-04-05T22:06:42.372Z,21.33
2019-04-05T22:11:45.035Z,23.83
2019-04-05T22:16:47.558Z,23.07
2019-04-05T22:21:50.077Z,24.03
2019-04-05T22:26:52.827Z,24.47
2019-04-05T22:31:55.379Z,25.03
2019-04-05T22:36:58.301Z,24.40
2019-04-05T22:42:00.903Z,24.20
2019-04-05T22:47:03.501Z,22.93
2019-04-05T22:52:06.130Z,23.17
2019-04-05T22:57:08.822Z,25.37
2019-04-05T23:02:12.605Z,22.43
2019-04-05T23:07:15.549Z,23.83
2019-04-05T23:12:18.165Z,23.40
2019-04-05T23:17:21.461Z,23.67
2019-04-05T23:22:24.054Z,23.83
2019-04-05T23:27:26.799Z,23.63
2019-04-05T23:32:29.385Z,23.57
2019-04-05T23:37:31.961Z,23.93
2019-04-05T23:42:34.508Z,23.37
2019-04-05T23:47:37.208Z,23.17
2019-04-05T23:52:40.019Z,25.10
2019-04-05T23:57:42.699Z,25.20
